Time;durP1;ratioP1;P1;durP2;ratioP2;P2;SDS_P1;SDS_P2;PMS_P1;PMS_P2;Temp;Humidity;BMP_temperature;BMP_pressure;BME280_temperature;BME280_humidity;BME280_pressure;Samples;Min_cycle;Max_cycle;Signal;HPM_P1;HPM_P2
2022/08/29 00:00:05;;;;;;;7.93;3.67;;;16.80;89.70;;;;;;5051758;28;20388;-45
2022/08/29 00:02:32;;;;;;;8.45;3.35;;;16.80;88.70;;;;;;5052545;28;20088;-49
2022/08/29 00:04:58;;;;;;;14.27;3.97;;;16.80;88.90;;;;;;5052399;28;20092;-46
2022/08/29 00:07:26;;;;;;;14.23;4.25;;;16.80;88.80;;;;;;5051805;28;20420;-46
2022/08/29 00:09:53;;;;;;;7.55;3.72;;;16.70;89.00;;;;;;5050898;28;20065;-46
2022/08/29 00:12:20;;;;;;;8.73;3.88;;;16.70;89.20;;;;;;5051112;28;20045;-48
2022/08/29 00:14:47;;;;;;;5.93;3.40;;;16.80;89.10;;;;;;5033217;28;20127;-47
2022/08/29 00:17:13;;;;;;;7.80;3.63;;;16.70;88.90;;;;;;5033072;28;20068;-45
2022/08/29 00:19:40;;;;;;;9.82;3.83;;;16.70;88.80;;;;;;5051520;28;20052;-45
2022/08/29 00:22:07;;;;;;;7.28;3.90;;;16.70;89.20;;;;;;5033313;28;20083;-47
2022/08/29 00:24:35;;;;;;;7.93;4.30;;;16.70;89.50;;;;;;5051229;28;20124;-43
2022/08/29 00:27:02;;;;;;;7.40;3.90;;;16.60;89.40;;;;;;5024918;28;20128;-45
2022/08/29 00:29:28;;;;;;;7.53;3.78;;;16.60;89.40;;;;;;5051813;28;20078;-45
2022/08/29 00:31:55;;;;;;;8.43;3.90;;;16.60;89.40;;;;;;5031855;28;20068;-46
2022/08/29 00:34:22;;;;;;;8.10;4.43;;;16.60;89.50;;;;;;5028276;28;20081;-46
2022/08/29 00:36:50;;;;;;;7.82;4.13;;;16.70;90.00;;;;;;5048953;28;20083;-47
2022/08/29 00:39:17;;;;;;;9.73;4.40;;;16.60;90.00;;;;;;5055353;28;20118;-46
2022/08/29 00:41:45;;;;;;;8.00;4.10;;;16.70;90.20;;;;;;5054338;28;20076;-43
2022/08/29 00:44:11;;;;;;;12.80;4.80;;;16.60;90.20;;;;;;5053273;28;20507;-43
2022/08/29 00:46:46;;;;;;;9.48;3.97;;;16.60;90.20;;;;;;5054762;28;20123;-43
2022/08/29 00:49:13;;;;;;;8.73;4.15;;;16.70;90.10;;;;;;5055157;28;20033;-45
2022/08/29 00:51:40;;;;;;;10.68;4.18;;;16.60;90.10;;;;;;5035872;28;20106;-46
2022/08/29 00:54:09;;;;;;;9.55;3.97;;;16.60;90.10;;;;;;5037670;28;20073;-44
2022/08/29 00:56:36;;;;;;;15.23;4.50;;;16.60;90.10;;;;;;5054508;28;20098;-45
2022/08/29 00:59:07;;;;;;;7.32;3.75;;;16.60;90.10;;;;;;5036735;28;20076;-46
2022/08/29 01:01:37;;;;;;;6.93;3.85;;;16.60;90.10;;;;;;5048483;28;20048;-47
2022/08/29 01:04:04;;;;;;;7.72;4.10;;;16.60;90.30;;;;;;5020134;28;20076;-46
2022/08/29 01:06:31;;;;;;;7.82;4.15;;;16.60;90.10;;;;;;5037516;28;20120;-45
2022/08/29 01:08:58;;;;;;;8.15;4.10;;;16.70;90.20;;;;;;5054193;28;20080;-46
2022/08/29 01:14:10;;;;;;;10.57;4.63;;;16.70;90.30;;;;;;5047885;28;20481;-37
2022/08/29 01:16:37;;;;;;;7.05;3.58;;;16.70;90.50;;;;;;5053201;28;20123;-46
2022/08/29 01:19:08;;;;;;;7.07;3.67;;;16.70;90.40;;;;;;5052629;28;20441;-43
2022/08/29 01:21:37;;;;;;;11.23;4.87;;;16.60;90.30;;;;;;5037298;28;20048;-45
2022/08/29 01:24:08;;;;;;;8.13;4.35;;;16.70;90.50;;;;;;5055184;28;20049;-45
2022/08/29 01:26:36;;;;;;;8.23;4.22;;;16.70;90.50;;;;;;5055465;28;20485;-45
2022/08/29 01:29:02;;;;;;;8.10;4.53;;;16.70;90.50;;;;;;5037627;28;20553;-47
2022/08/29 01:31:37;;;;;;;8.43;3.80;;;16.70;90.60;;;;;;5037201;28;20124;-43
2022/08/29 01:34:04;;;;;;;10.77;4.50;;;16.70;90.50;;;;;;5055098;28;20124;-45
2022/08/29 01:36:34;;;;;;;12.55;5.18;;;16.60;91.00;;;;;;5054591;28;20492;-47
2022/08/29 01:39:00;;;;;;;8.30;4.53;;;16.60;91.00;;;;;;5028732;28;20484;-47
2022/08/29 01:41:29;;;;;;;12.70;4.75;;;16.60;91.20;;;;;;5051496;28;20445;-45
2022/08/29 01:43:57;;;;;;;12.02;4.43;;;16.50;91.20;;;;;;5054252;28;20076;-45
2022/08/29 01:46:28;;;;;;;10.10;4.68;;;16.50;91.30;;;;;;5054633;28;20473;-46
2022/08/29 01:48:58;;;;;;;11.57;4.68;;;16.50;91.20;;;;;;5054261;28;20041;-46
2022/08/29 01:51:25;;;;;;;8.43;4.03;;;16.50;91.30;;;;;;5053606;28;20077;-46
2022/08/29 01:53:52;;;;;;;11.68;4.78;;;16.40;91.20;;;;;;5029300;28;20079;-46
2022/08/29 01:56:20;;;;;;;7.90;4.15;;;16.50;91.20;;;;;;5054154;28;20088;-46
2022/08/29 01:58:48;;;;;;;14.50;4.63;;;16.50;91.20;;;;;;5036438;28;20091;-44
2022/08/29 02:01:17;;;;;;;11.90;4.32;;;16.50;91.30;;;;;;5033633;28;20041;-48
2022/08/29 02:03:44;;;;;;;9.27;4.40;;;16.50;91.20;;;;;;5047322;28;20115;-48
2022/08/29 02:06:11;;;;;;;8.50;3.78;;;16.50;91.30;;;;;;5023926;28;20077;-47
2022/08/29 02:08:37;;;;;;;9.13;4.70;;;16.50;91.30;;;;;;5033643;28;20132;-46
2022/08/29 02:11:08;;;;;;;9.32;4.45;;;16.50;91.20;;;;;;5052810;28;20128;-45
2022/08/29 02:13:35;;;;;;;10.55;4.43;;;16.50;91.20;;;;;;5036037;28;20068;-46
2022/08/29 02:16:02;;;;;;;8.60;4.25;;;16.50;91.00;;;;;;5053825;28;20472;-48
2022/08/29 02:18:32;;;;;;;12.10;4.07;;;16.50;91.10;;;;;;5051791;28;20067;-45
2022/08/29 02:20:58;;;;;;;4.95;3.55;;;16.60;91.20;;;;;;5053664;28;20048;-46
2022/08/29 02:23:25;;;;;;;7.28;3.80;;;16.60;91.20;;;;;;5053743;28;20457;-46
2022/08/29 02:25:52;;;;;;;7.20;3.47;;;16.60;91.20;;;;;;5031048;28;20053;-47
2022/08/29 02:28:21;;;;;;;8.55;4.40;;;16.60;91.00;;;;;;5053082;28;20120;-40
2022/08/29 02:30:49;;;;;;;7.88;3.90;;;16.60;90.90;;;;;;5042383;28;20075;-46
2022/08/29 02:33:16;;;;;;;8.25;4.47;;;16.60;91.00;;;;;;5053708;28;20041;-46
2022/08/29 02:35:44;;;;;;;9.73;4.45;;;16.60;91.20;;;;;;5052323;28;20045;-41
2022/08/29 02:38:11;;;;;;;8.45;4.00;;;16.60;91.20;;;;;;5049581;28;20045;-45
2022/08/29 02:40:38;;;;;;;12.70;4.03;;;16.60;91.30;;;;;;5052581;28;20127;-44
2022/08/29 02:43:05;;;;;;;7.45;3.70;;;16.60;91.50;;;;;;5053307;28;20041;-45
2022/08/29 02:45:32;;;;;;;9.95;4.20;;;16.60;91.50;;;;;;5035508;28;20136;-47
2022/08/29 02:47:59;;;;;;;7.13;4.10;;;16.60;91.40;;;;;;5051947;28;20091;-41
2022/08/29 02:50:26;;;;;;;8.65;4.10;;;16.60;91.40;;;;;;5039268;28;20080;-43
2022/08/29 02:52:54;;;;;;;8.75;4.25;;;16.60;91.50;;;;;;5052981;28;20433;-45
2022/08/29 02:55:21;;;;;;;8.68;4.20;;;16.60;91.40;;;;;;5053318;28;20107;-45
2022/08/29 02:57:47;;;;;;;10.50;4.15;;;16.60;91.20;;;;;;5051468;28;20048;-42
2022/08/29 03:00:16;;;;;;;8.50;3.78;;;16.60;91.20;;;;;;5032652;28;20116;-46
2022/08/29 03:02:43;;;;;;;10.77;4.45;;;16.60;91.20;;;;;;5029283;28;20114;-45
2022/08/29 03:05:10;;;;;;;6.03;3.55;;;16.60;91.20;;;;;;5052229;28;20048;-43
2022/08/29 03:07:37;;;;;;;11.75;4.80;;;16.60;91.20;;;;;;5052035;28;20103;-45
2022/08/29 03:10:06;;;;;;;11.00;4.45;;;16.60;91.20;;;;;;5035173;28;20140;-46
2022/08/29 03:12:33;;;;;;;8.63;3.95;;;16.60;91.30;;;;;;5034105;28;20052;-47
2022/08/29 03:15:00;;;;;;;8.48;4.10;;;16.60;91.20;;;;;;5052602;28;20080;-45
2022/08/29 03:17:26;;;;;;;7.47;4.10;;;16.60;91.10;;;;;;5034084;28;20135;-46
2022/08/29 03:19:53;;;;;;;9.32;4.25;;;16.60;91.20;;;;;;5052679;28;20055;-45
2022/08/29 03:22:20;;;;;;;6.93;4.10;;;16.60;91.30;;;;;;5052038;28;20132;-46
2022/08/29 03:24:46;;;;;;;7.50;4.20;;;16.60;91.40;;;;;;5045795;28;20345;-45
2022/08/29 03:27:15;;;;;;;6.55;3.90;;;16.60;91.50;;;;;;5042966;28;20045;-44
2022/08/29 03:29:41;;;;;;;10.85;4.32;;;16.60;91.50;;;;;;5052208;28;20123;-46
2022/08/29 03:32:08;;;;;;;9.57;4.28;;;16.60;91.70;;;;;;5044626;28;20124;-45
2022/08/29 03:34:35;;;;;;;11.02;4.50;;;16.60;91.70;;;;;;5035266;28;20084;-46
2022/08/29 03:37:01;;;;;;;10.25;4.45;;;16.60;91.50;;;;;;5052025;28;20145;-45
2022/08/29 03:39:28;;;;;;;9.63;3.85;;;16.60;91.70;;;;;;5052826;28;20128;-44
2022/08/29 03:41:55;;;;;;;9.40;4.32;;;16.50;91.70;;;;;;5052123;28;20049;-44
2022/08/29 03:44:23;;;;;;;7.47;3.75;;;16.50;91.70;;;;;;5052678;28;20124;-45
2022/08/29 03:46:50;;;;;;;7.45;4.38;;;16.50;91.70;;;;;;5052115;28;20128;-46
2022/08/29 03:49:17;;;;;;;9.88;4.03;;;16.50;91.80;;;;;;5035176;28;20084;-46
2022/08/29 03:51:44;;;;;;;10.90;4.20;;;16.50;91.90;;;;;;5033926;28;20086;-46
2022/08/29 03:54:10;;;;;;;10.00;3.92;;;16.50;92.20;;;;;;5052423;28;20097;-47
2022/08/29 03:56:37;;;;;;;11.68;4.75;;;16.50;92.00;;;;;;5051452;28;20086;-46
2022/08/29 03:59:04;;;;;;;10.05;4.30;;;16.50;92.20;;;;;;5024023;28;20114;-45
2022/08/29 04:01:32;;;;;;;7.45;4.20;;;16.50;92.30;;;;;;5050341;28;20052;-47
2022/08/29 04:03:59;;;;;;;8.45;4.10;;;16.50;92.30;;;;;;5027728;28;20045;-44
2022/08/29 04:06:27;;;;;;;7.90;4.20;;;16.50;92.40;;;;;;5033049;28;20138;-46
2022/08/29 04:08:53;;;;;;;8.60;4.22;;;16.50;92.30;;;;;;5051195;28;20045;-45
2022/08/29 04:11:22;;;;;;;9.70;4.70;;;16.50;92.30;;;;;;5034756;28;20414;-47
2022/08/29 04:13:48;;;;;;;9.07;3.90;;;16.50;92.50;;;;;;5051768;28;20489;-44
2022/08/29 04:16:17;;;;;;;6.50;4.00;;;16.50;92.70;;;;;;5032537;28;20045;-45
2022/08/29 04:18:45;;;;;;;10.70;4.53;;;16.40;92.20;;;;;;5050816;28;20119;-47
2022/08/29 04:21:11;;;;;;;7.75;3.85;;;16.40;92.30;;;;;;5033745;28;20128;-47
2022/08/29 04:23:39;;;;;;;9.90;4.68;;;16.40;92.50;;;;;;5051237;28;20124;-46
2022/08/29 04:26:06;;;;;;;8.95;4.60;;;16.30;92.70;;;;;;5048749;28;20076;-40
2022/08/29 04:28:32;;;;;;;12.50;4.82;;;16.30;92.90;;;;;;5049495;28;20083;-44
2022/08/29 04:30:59;;;;;;;10.07;4.20;;;16.30;93.00;;;;;;5033033;28;20132;-48
2022/08/29 04:33:26;;;;;;;9.77;4.50;;;16.30;92.90;;;;;;5014784;28;20132;-45
2022/08/29 04:35:54;;;;;;;9.05;3.90;;;16.20;92.80;;;;;;5046241;28;20037;-46
2022/08/29 04:38:21;;;;;;;10.10;4.72;;;16.20;93.00;;;;;;5047977;28;20131;-47
2022/08/29 04:40:48;;;;;;;9.80;4.32;;;16.20;93.10;;;;;;5049783;28;20053;-43
2022/08/29 04:43:14;;;;;;;9.88;5.40;;;16.20;93.40;;;;;;5033773;28;20148;-48
2022/08/29 04:45:41;;;;;;;12.25;4.60;;;16.10;93.60;;;;;;5050499;28;20084;-47
2022/08/29 04:48:09;;;;;;;10.05;4.57;;;16.00;93.60;;;;;;5049675;28;20128;-50
2022/08/29 04:50:36;;;;;;;10.63;4.18;;;16.00;93.60;;;;;;5050917;28;20073;-44
2022/08/29 04:53:04;;;;;;;15.45;4.15;;;16.00;93.40;;;;;;5033791;28;20076;-49
2022/08/29 04:55:31;;;;;;;10.07;4.38;;;16.00;93.60;;;;;;5050023;28;20045;-49
2022/08/29 04:57:58;;;;;;;8.73;4.20;;;16.00;93.70;;;;;;5049814;28;20045;-51
2022/08/29 05:00:26;;;;;;;10.68;4.05;;;15.90;93.60;;;;;;5050217;28;20586;-40
2022/08/29 05:02:53;;;;;;;7.05;4.00;;;16.00;94.10;;;;;;5048974;28;20041;-50
2022/08/29 05:05:20;;;;;;;11.13;4.38;;;16.00;94.00;;;;;;5032951;28;20056;-44
2022/08/29 05:07:47;;;;;;;11.15;3.97;;;15.90;94.20;;;;;;5031998;28;20128;-47
2022/08/29 05:10:17;;;;;;;7.55;3.78;;;15.90;94.30;;;;;;5039442;28;20049;-50
2022/08/29 05:12:44;;;;;;;10.88;4.00;;;16.00;94.40;;;;;;5051139;28;20472;-45
2022/08/29 05:15:12;;;;;;;9.68;4.20;;;15.90;94.30;;;;;;5050477;28;20052;-46
2022/08/29 05:17:38;;;;;;;11.30;3.75;;;16.00;94.60;;;;;;5043628;28;20049;-46
2022/08/29 05:20:07;;;;;;;8.95;3.47;;;16.00;94.40;;;;;;5054888;28;20124;-45
2022/08/29 05:22:33;;;;;;;11.85;4.00;;;16.00;94.50;;;;;;5044728;28;20046;-45
2022/08/29 05:25:00;;;;;;;8.68;3.35;;;16.00;94.70;;;;;;5050800;28;20456;-41
2022/08/29 05:27:29;;;;;;;7.88;4.22;;;16.00;94.60;;;;;;5053287;28;20115;-46
2022/08/29 05:29:56;;;;;;;9.40;3.88;;;16.10;94.70;;;;;;5045360;28;20139;-43
2022/08/29 05:32:23;;;;;;;11.02;3.95;;;16.10;94.80;;;;;;5035596;28;20080;-43
2022/08/29 05:34:50;;;;;;;10.43;3.80;;;16.10;95.00;;;;;;5053047;28;20068;-46
2022/08/29 05:37:18;;;;;;;7.00;3.22;;;16.10;95.10;;;;;;5048849;28;20219;-48
2022/08/29 05:39:45;;;;;;;10.85;3.92;;;16.20;95.20;;;;;;5047478;28;20045;-45
2022/08/29 05:42:12;;;;;;;10.15;3.53;;;16.20;95.40;;;;;;5040267;28;20121;-43
2022/08/29 05:44:40;;;;;;;12.85;3.80;;;16.30;95.40;;;;;;5047004;28;20115;-45
2022/08/29 05:47:29;;;;;;;8.70;3.33;;;16.30;95.90;;;;;;5053758;28;20074;-43
2022/08/29 05:49:55;;;;;;;10.13;3.33;;;16.40;95.50;;;;;;5049570;28;20116;-43
2022/08/29 05:52:22;;;;;;;12.70;3.65;;;16.40;95.90;;;;;;5043839;28;20575;-47
2022/08/29 05:54:49;;;;;;;13.70;3.72;;;16.40;96.10;;;;;;5049595;28;20053;-37
2022/08/29 05:57:18;;;;;;;18.80;3.63;;;16.40;96.20;;;;;;5032283;28;20119;-44
2022/08/29 05:59:46;;;;;;;10.75;3.78;;;16.50;96.60;;;;;;5052296;28;20388;-44
2022/08/29 06:02:13;;;;;;;14.57;3.70;;;16.50;96.60;;;;;;5051574;28;20044;-46
2022/08/29 06:04:40;;;;;;;14.18;3.75;;;16.60;96.90;;;;;;5048699;28;20128;-47
2022/08/29 06:07:07;;;;;;;11.55;4.07;;;16.60;96.70;;;;;;5034102;28;20660;-45
2022/08/29 06:09:34;;;;;;;11.30;3.15;;;16.70;96.90;;;;;;5034833;28;20126;-43
2022/08/29 06:12:01;;;;;;;11.95;3.88;;;16.70;96.70;;;;;;5036110;28;20091;-44
2022/08/29 06:14:27;;;;;;;6.70;2.70;;;16.80;97.10;;;;;;5048481;28;20069;-45
2022/08/29 06:16:55;;;;;;;10.18;3.15;;;16.90;97.20;;;;;;5034425;28;20124;-43
2022/08/29 06:19:22;;;;;;;10.38;3.35;;;17.00;97.30;;;;;;5048068;28;20057;-40
2022/08/29 06:21:49;;;;;;;9.05;3.22;;;17.10;97.40;;;;;;5039132;28;20463;-44
2022/08/29 06:24:16;;;;;;;14.07;3.13;;;17.20;97.30;;;;;;5048295;28;20077;-45
2022/08/29 06:26:43;;;;;;;7.55;2.90;;;17.20;97.10;;;;;;5053407;28;20132;-45
2022/08/29 06:29:10;;;;;;;13.63;3.60;;;17.30;97.10;;;;;;5049385;28;20060;-46
2022/08/29 06:31:37;;;;;;;9.82;3.08;;;17.40;97.30;;;;;;5043392;28;20472;-46
2022/08/29 06:34:05;;;;;;;15.00;3.20;;;17.50;97.60;;;;;;5034254;28;20149;-47
2022/08/29 06:36:32;;;;;;;11.20;3.20;;;17.50;97.60;;;;;;5035235;28;20057;-47
2022/08/29 06:39:00;;;;;;;9.02;3.08;;;17.60;97.70;;;;;;5031356;28;20792;-42
2022/08/29 06:41:27;;;;;;;13.18;3.13;;;17.60;97.60;;;;;;5049962;28;20134;-46
2022/08/29 06:43:55;;;;;;;13.05;2.90;;;17.60;97.80;;;;;;5034818;28;20080;-46
2022/08/29 06:46:23;;;;;;;10.38;2.78;;;17.70;97.90;;;;;;5051892;28;20274;-45
2022/08/29 06:48:50;;;;;;;9.45;3.08;;;17.80;98.00;;;;;;5051226;28;20116;-47
2022/08/29 06:51:18;;;;;;;11.43;3.05;;;17.80;98.00;;;;;;5053220;28;20047;-46
2022/08/29 06:53:45;;;;;;;11.25;2.83;;;17.90;98.00;;;;;;5045453;28;20073;-45
2022/08/29 06:56:13;;;;;;;12.20;3.08;;;18.00;98.10;;;;;;5026024;28;20073;-44
2022/08/29 06:58:39;;;;;;;15.15;3.15;;;18.10;98.00;;;;;;5051820;28;20095;-46
2022/08/29 07:01:07;;;;;;;11.10;2.60;;;18.10;98.00;;;;;;5052164;28;20045;-47
2022/08/29 07:03:34;;;;;;;10.80;2.55;;;18.20;98.00;;;;;;5034188;28;20041;-49
2022/08/29 07:06:00;;;;;;;9.88;2.17;;;18.30;97.80;;;;;;5045910;28;20132;-47
2022/08/29 07:08:29;;;;;;;13.20;2.92;;;18.40;97.80;;;;;;5051525;28;20468;-48
2022/08/29 07:10:55;;;;;;;7.82;2.45;;;18.50;97.60;;;;;;5047325;28;20045;-43
2022/08/29 07:13:22;;;;;;;10.82;2.80;;;18.50;97.60;;;;;;5051625;28;20088;-44
2022/08/29 07:15:49;;;;;;;8.45;2.53;;;18.60;97.50;;;;;;5051644;28;20072;-43
2022/08/29 07:18:16;;;;;;;13.27;2.55;;;18.60;97.50;;;;;;5052504;28;20041;-45
2022/08/29 07:20:42;;;;;;;13.23;2.80;;;18.60;97.50;;;;;;5046333;28;20045;-46
2022/08/29 07:23:09;;;;;;;9.93;2.75;;;18.60;97.70;;;;;;5035063;28;20056;-42
2022/08/29 07:25:37;;;;;;;9.60;2.47;;;18.60;97.10;;;;;;5032500;28;20041;-42
2022/08/29 07:28:04;;;;;;;12.45;2.25;;;18.70;97.20;;;;;;5028581;28;20052;-43
2022/08/29 07:30:31;;;;;;;8.88;2.75;;;18.70;97.30;;;;;;5046342;28;20072;-49
2022/08/29 07:32:58;;;;;;;8.38;2.20;;;18.80;97.40;;;;;;5053212;28;20080;-43
2022/08/29 07:35:25;;;;;;;6.82;2.53;;;18.80;97.40;;;;;;5053262;28;20075;-46
2022/08/29 07:37:52;;;;;;;15.27;2.97;;;18.80;97.30;;;;;;5045371;28;20397;-44
2022/08/29 07:40:19;;;;;;;7.78;2.47;;;18.90;97.30;;;;;;5045961;28;20119;-44
2022/08/29 07:42:47;;;;;;;10.50;2.60;;;19.00;97.30;;;;;;5042093;28;20578;-46
2022/08/29 07:45:16;;;;;;;10.27;2.75;;;19.00;97.40;;;;;;5050223;28;20045;-46
2022/08/29 07:47:43;;;;;;;9.13;2.60;;;19.20;97.40;;;;;;5048396;28;20049;-45
2022/08/29 07:50:11;;;;;;;14.00;3.20;;;19.40;97.10;;;;;;5049783;28;20147;-43
2022/08/29 07:52:37;;;;;;;10.77;2.65;;;19.50;96.90;;;;;;5035712;28;20107;-46
2022/08/29 07:55:05;;;;;;;18.10;3.08;;;19.70;96.90;;;;;;5027547;28;20080;-44
2022/08/29 07:57:32;;;;;;;13.25;2.47;;;19.80;96.80;;;;;;5052360;28;20458;-43
2022/08/29 08:00:02;;;;;;;11.23;3.28;;;20.00;96.70;;;;;;5034844;28;20079;-45
2022/08/29 08:02:30;;;;;;;12.67;2.90;;;20.10;96.50;;;;;;5030783;28;20136;-45
2022/08/29 08:04:57;;;;;;;9.43;2.95;;;20.30;96.30;;;;;;5041944;28;20719;-43
2022/08/29 08:07:23;;;;;;;17.05;3.45;;;20.40;96.10;;;;;;5034835;28;20037;-45
2022/08/29 08:09:51;;;;;;;17.38;3.53;;;20.50;95.90;;;;;;5034465;28;20105;-44
2022/08/29 08:12:17;;;;;;;14.50;3.03;;;20.60;95.80;;;;;;5052829;28;20048;-47
2022/08/29 08:14:44;;;;;;;14.20;3.55;;;20.60;95.80;;;;;;5051601;28;20112;-42
2022/08/29 08:17:12;;;;;;;13.57;3.38;;;20.70;95.80;;;;;;5051803;28;20136;-46
2022/08/29 08:19:39;;;;;;;15.52;3.10;;;20.70;95.60;;;;;;5052474;28;20091;-44
2022/08/29 08:22:06;;;;;;;18.50;3.58;;;20.80;95.50;;;;;;5026350;28;20037;-44
2022/08/29 08:24:32;;;;;;;16.73;3.58;;;20.80;95.30;;;;;;5041594;28;20136;-46
2022/08/29 08:26:59;;;;;;;12.52;3.30;;;20.80;95.20;;;;;;5043531;28;20124;-46
2022/08/29 08:29:26;;;;;;;16.23;3.25;;;20.80;95.40;;;;;;5035144;28;20100;-44
2022/08/29 08:31:54;;;;;;;14.35;2.78;;;20.90;95.50;;;;;;5026344;28;20084;-45
2022/08/29 08:34:22;;;;;;;15.20;2.95;;;20.90;95.00;;;;;;5052386;28;20111;-44
2022/08/29 08:36:49;;;;;;;13.52;3.33;;;20.90;94.90;;;;;;5052463;28;20124;-46
2022/08/29 08:39:16;;;;;;;9.73;2.78;;;20.90;94.80;;;;;;5052189;28;20452;-46
2022/08/29 08:41:50;;;;;;;11.23;2.92;;;20.90;94.60;;;;;;5051473;28;20088;-43
2022/08/29 08:44:41;;;;;;;16.05;3.42;;;21.00;94.60;;;;;;5052271;28;20484;-44
2022/08/29 08:47:08;;;;;;;11.82;3.20;;;21.10;94.30;;;;;;5051179;28;20119;-43
2022/08/29 08:49:41;;;;;;;9.32;2.40;;;21.10;94.30;;;;;;5052281;28;20072;-46
2022/08/29 08:52:10;;;;;;;13.45;3.00;;;21.20;94.20;;;;;;5053283;28;20045;-46
2022/08/29 08:54:41;;;;;;;10.27;2.58;;;21.30;94.30;;;;;;5056234;28;20080;-48
2022/08/29 08:57:09;;;;;;;13.82;3.03;;;21.30;94.20;;;;;;5038603;28;20080;-47
2022/08/29 08:59:40;;;;;;;7.30;2.08;;;21.30;93.90;;;;;;5056146;28;20052;-46
2022/08/29 09:02:10;;;;;;;;;;;21.30;93.70;;;;;;5055375;28;20136;-49
2022/08/29 09:04:42;;;;;;;13.55;3.17;;;21.30;93.40;;;;;;5055767;28;20360;-48
2022/08/29 09:07:23;;;;;;;7.40;2.60;;;21.30;93.80;;;;;;5038392;28;20048;-46
2022/08/29 09:09:57;;;;;;;10.60;2.75;;;21.30;93.50;;;;;;5056093;28;20049;-47
2022/08/29 09:12:31;;;;;;;9.25;2.53;;;21.30;93.30;;;;;;5037450;28;20469;-42
2022/08/29 09:15:04;;;;;;;10.43;2.20;;;21.30;93.30;;;;;;5055041;28;20465;-47
2022/08/29 09:17:35;;;;;;;12.45;2.97;;;21.40;93.30;;;;;;5055863;28;20388;-48
2022/08/29 09:20:05;;;;;;;10.43;2.60;;;21.50;93.10;;;;;;5055970;28;20144;-44
2022/08/29 09:22:32;;;;;;;6.20;2.15;;;21.60;93.00;;;;;;5054847;28;20449;-46
2022/08/29 09:25:00;;;;;;;10.40;2.45;;;21.60;92.80;;;;;;5054758;28;20461;-46
2022/08/29 09:27:28;;;;;;;10.45;2.58;;;21.80;92.70;;;;;;5055437;28;20556;-50
2022/08/29 09:29:59;;;;;;;9.57;2.70;;;21.80;92.60;;;;;;5055647;28;20049;-49
2022/08/29 09:32:26;;;;;;;14.70;2.90;;;21.90;92.60;;;;;;5054621;28;20084;-45
2022/08/29 09:34:53;;;;;;;12.80;2.97;;;21.90;92.70;;;;;;5036658;28;20460;-47
2022/08/29 09:37:26;;;;;;;10.70;3.05;;;22.00;92.70;;;;;;5030386;28;20085;-48
2022/08/29 09:39:57;;;;;;;15.73;3.22;;;22.00;92.60;;;;;;5037473;28;20493;-44
2022/08/29 09:42:28;;;;;;;13.07;3.15;;;22.10;92.50;;;;;;5054646;28;20045;-46
2022/08/29 09:44:56;;;;;;;17.27;4.68;;;22.20;92.60;;;;;;5053432;28;20084;-47
2022/08/29 09:47:23;;;;;;;9.38;2.60;;;22.30;92.50;;;;;;5049397;28;20053;-47
2022/08/29 09:50:07;;;;;;;15.10;3.20;;;22.40;92.40;;;;;;5035126;28;20091;-45
2022/08/29 09:52:36;;;;;;;12.85;3.00;;;22.60;92.10;;;;;;5034180;28;20076;-44
2022/08/29 09:55:22;;;;;;;13.15;3.08;;;22.70;91.90;;;;;;5053252;28;20041;-46
2022/08/29 09:57:50;;;;;;;11.60;2.55;;;22.80;91.80;;;;;;5055215;28;20129;-47
2022/08/29 10:00:18;;;;;;;13.35;2.95;;;23.00;91.60;;;;;;5054729;28;20057;-41
2022/08/29 10:02:45;;;;;;;13.73;3.75;;;23.10;91.70;;;;;;5054695;28;20444;-46
2022/08/29 10:05:30;;;;;;;14.65;3.25;;;23.20;91.60;;;;;;5053186;28;20045;-44
2022/08/29 10:07:58;;;;;;;11.50;2.90;;;23.40;91.50;;;;;;5055037;28;20049;-44
2022/08/29 10:10:26;;;;;;;13.32;2.95;;;23.60;91.20;;;;;;5036425;28;20122;-46
2022/08/29 10:12:56;;;;;;;13.23;3.13;;;23.80;90.70;;;;;;5053884;28;20186;-43
2022/08/29 10:15:24;;;;;;;17.05;3.00;;;24.10;90.70;;;;;;5032950;28;20520;-45
2022/08/29 10:20:46;;;;;;;12.35;3.25;;;24.50;89.70;;;;;;5054492;28;20044;-45
2022/08/29 10:23:19;;;;;;;13.77;2.85;;;24.60;88.80;;;;;;5053688;28;20045;-48
2022/08/29 10:25:45;;;;;;;14.32;3.20;;;24.70;88.70;;;;;;5054018;28;20040;-46
2022/08/29 10:28:15;;;;;;;12.32;3.72;;;24.70;88.30;;;;;;5052081;28;20057;-45
2022/08/29 10:30:49;;;;;;;13.48;3.33;;;24.70;87.40;;;;;;5053486;28;20053;-43
2022/08/29 10:33:21;;;;;;;9.57;3.55;;;24.60;87.80;;;;;;5053580;28;20041;-48
2022/08/29 10:35:52;;;;;;;16.38;3.70;;;24.60;87.90;;;;;;5054184;28;20102;-46
2022/08/29 10:38:26;;;;;;;11.70;3.55;;;24.70;87.30;;;;;;5036442;28;20053;-50
2022/08/29 10:40:57;;;;;;;12.32;3.40;;;24.70;86.80;;;;;;5031515;28;20124;-45
2022/08/29 10:43:37;;;;;;;11.20;2.83;;;24.70;86.70;;;;;;5018704;28;20050;-45
2022/08/29 10:46:14;;;;;;;17.15;3.38;;;24.70;86.60;;;;;;5032589;28;20041;-49
2022/08/29 10:48:43;;;;;;;11.98;3.42;;;24.70;86.60;;;;;;5034100;28;20428;-46
2022/08/29 10:51:17;;;;;;;13.23;3.58;;;24.70;86.20;;;;;;5023234;28;20068;-45
2022/08/29 10:53:47;;;;;;;10.93;2.80;;;24.70;85.90;;;;;;5036036;28;20057;-48
2022/08/29 10:56:17;;;;;;;10.40;3.22;;;24.60;86.10;;;;;;5036455;28;20488;-46
2022/08/29 10:58:50;;;;;;;12.27;3.28;;;24.60;86.30;;;;;;5053444;28;20046;-49
2022/08/29 11:01:21;;;;;;;9.23;3.15;;;24.50;86.90;;;;;;5053316;28;20048;-45
2022/08/29 11:03:51;;;;;;;11.50;3.40;;;24.50;86.20;;;;;;5053783;28;20045;-47
2022/08/29 11:06:19;;;;;;;13.02;3.80;;;24.50;86.10;;;;;;5053494;28;20083;-47
2022/08/29 11:08:51;;;;;;;12.65;3.72;;;24.40;86.00;;;;;;5053852;28;20044;-47
2022/08/29 11:11:19;;;;;;;12.50;3.40;;;24.50;86.10;;;;;;5034111;28;20083;-46
2022/08/29 11:13:47;;;;;;;14.80;3.42;;;24.50;86.10;;;;;;5052723;28;20091;-46
2022/08/29 11:16:16;;;;;;;11.68;3.70;;;24.50;85.90;;;;;;5053360;28;20098;-46
2022/08/29 11:18:46;;;;;;;11.80;3.40;;;24.50;85.70;;;;;;5052393;28;20084;-49
2022/08/29 11:21:19;;;;;;;15.05;3.70;;;24.50;86.10;;;;;;5052594;28;20041;-47
2022/08/29 11:23:46;;;;;;;11.90;3.33;;;24.60;86.10;;;;;;5052204;28;20121;-47
2022/08/29 11:26:20;;;;;;;14.65;4.10;;;24.50;85.30;;;;;;5052537;28;20095;-46
2022/08/29 11:28:50;;;;;;;14.30;3.35;;;24.40;85.00;;;;;;5047672;28;20072;-47
2022/08/29 11:31:19;;;;;;;18.37;3.73;;;24.30;85.30;;;;;;5043364;28;20045;-47
2022/08/29 11:33:48;;;;;;;8.80;3.20;;;24.20;84.80;;;;;;5052091;28;20139;-48
2022/08/29 11:36:25;;;;;;;13.55;3.58;;;24.10;85.20;;;;;;5053289;28;20076;-51
2022/08/29 11:39:09;;;;;;;14.48;3.40;;;24.00;84.60;;;;;;5035631;28;20048;-51
2022/08/29 11:41:37;;;;;;;11.98;3.40;;;23.80;84.40;;;;;;5052229;28;20072;-50
2022/08/29 11:44:19;;;;;;;10.25;3.38;;;23.70;84.70;;;;;;5052068;28;20140;-46
2022/08/29 11:46:47;;;;;;;9.10;3.50;;;23.80;85.10;;;;;;5035330;28;20081;-51
2022/08/29 11:49:40;;;;;;;8.90;3.47;;;23.80;85.30;;;;;;5051909;28;20051;-46
2022/08/29 11:52:25;;;;;;;11.25;3.35;;;23.90;85.10;;;;;;5034521;28;20041;-47
2022/08/29 11:55:29;;;;;;;10.40;2.97;;;23.90;85.20;;;;;;5035213;28;20049;-49
2022/08/29 11:58:24;;;;;;;9.52;3.35;;;24.10;85.50;;;;;;5050401;28;20044;-45
2022/08/29 12:00:51;;;;;;;6.30;3.17;;;24.10;85.30;;;;;;5025095;28;20492;-50
2022/08/29 12:03:52;;;;;;;17.27;3.75;;;24.10;84.70;;;;;;5052875;28;20048;-48
2022/08/29 12:06:31;;;;;;;10.23;3.17;;;24.10;84.40;;;;;;5052645;28;20048;-49
2022/08/29 12:09:01;;;;;;;8.20;3.40;;;24.00;84.00;;;;;;5052596;28;20056;-46
2022/08/29 12:12:01;;;;;;;12.07;4.18;;;24.00;84.30;;;;;;5034001;28;20041;-47
2022/08/29 12:14:33;;;;;;;10.48;3.72;;;24.10;83.20;;;;;;5051710;28;20053;-51
2022/08/29 12:17:02;;;;;;;12.13;3.70;;;24.10;83.10;;;;;;5052614;28;20210;-48
2022/08/29 12:19:53;;;;;;;7.53;3.33;;;24.10;82.30;;;;;;5052597;28;20045;-47
2022/08/29 12:22:45;;;;;;;8.00;3.15;;;24.20;82.50;;;;;;5041307;28;20469;-51
2022/08/29 12:25:30;;;;;;;7.47;2.72;;;24.40;81.90;;;;;;5047184;28;20120;-47
2022/08/29 12:27:59;;;;;;;11.10;3.35;;;24.50;81.70;;;;;;5051990;28;20076;-50
2022/08/29 12:30:28;;;;;;;12.23;3.88;;;24.50;81.40;;;;;;5056651;28;20055;-48
2022/08/29 12:32:59;;;;;;;10.27;3.38;;;24.40;81.50;;;;;;5054447;28;20076;-49
2022/08/29 12:35:39;;;;;;;;;;;24.50;81.90;;;;;;5056318;28;20472;-46
2022/08/29 12:38:12;;;;;;;8.73;3.30;;;24.50;82.50;;;;;;5055632;28;19916;-47
2022/08/29 12:40:47;;;;;;;11.82;3.47;;;24.60;82.70;;;;;;5056473;28;20110;-49
2022/08/29 12:43:33;;;;;;;7.75;3.20;;;24.60;82.30;;;;;;5036528;28;20045;-46
2022/08/29 12:46:02;;;;;;;7.97;2.83;;;24.70;82.10;;;;;;5048397;28;20041;-46
2022/08/29 12:48:32;;;;;;;11.43;3.00;;;24.70;82.10;;;;;;5055582;28;20080;-47
2022/08/29 12:50:59;;;;;;;12.52;3.50;;;24.70;81.60;;;;;;5038720;28;20053;-46
2022/08/29 12:53:28;;;;;;;13.02;3.30;;;24.70;81.90;;;;;;5055970;28;20540;-47
2022/08/29 12:55:56;;;;;;;11.48;2.80;;;24.80;82.00;;;;;;5056356;28;20045;-41